Time;durP1;ratioP1;P1;durP2;ratioP2;P2;SDS_P1;SDS_P2;PMS_P1;PMS_P2;Temp;Humidity;BMP_temperature;BMP_pressure;BME280_temperature;BME280_humidity;BME280_pressure;Samples;Min_cycle;Max_cycle;Signal;HPM_P1;HPM_P2
2021/05/24 00:02:23;;;;;;;2.10;2.00;;;;;;;7.95;92.36;100230.20;663946;216;24773;-78
2021/05/24 00:04:51;;;;;;;6.23;2.33;;;;;;;7.88;93.95;100228.62;665790;215;24789;-78
2021/05/24 00:07:18;;;;;;;3.50;2.47;;;;;;;8.15;93.99;100221.58;661439;216;24775;-78
2021/05/24 00:09:46;;;;;;;2.73;2.53;;;;;;;8.20;94.00;100218.62;665234;216;24806;-78
2021/05/24 00:12:25;;;;;;;3.33;2.33;;;;;;;8.17;94.54;100214.52;664597;214;24790;-78
2021/05/24 00:14:47;;;;;;;3.10;2.43;;;;;;;8.24;93.77;100213.52;663924;214;24804;-78
2021/05/24 00:17:13;;;;;;;2.50;2.30;;;;;;;8.23;95.42;100211.40;663060;216;24774;-78
2021/05/24 00:19:41;;;;;;;2.70;2.43;;;;;;;8.52;93.66;100203.76;663426;216;24777;-78
2021/05/24 00:22:09;;;;;;;3.83;2.23;;;;;;;8.46;93.31;100203.48;663123;216;24774;-78
2021/05/24 00:24:37;;;;;;;4.87;2.53;;;;;;;8.33;94.18;100196.72;664727;212;24783;-79
2021/05/24 00:27:05;;;;;;;3.17;2.73;;;;;;;8.41;94.11;100197.38;663631;216;24762;-78
2021/05/24 00:29:33;;;;;;;6.63;2.80;;;;;;;8.43;94.78;100203.72;663432;216;25060;-78
2021/05/24 00:32:01;;;;;;;4.63;2.70;;;;;;;8.39;96.31;100203.64;663961;216;25165;-78
2021/05/24 00:34:29;;;;;;;3.33;2.40;;;;;;;8.11;95.49;100205.14;663884;216;24808;-77
2021/05/24 00:36:57;;;;;;;3.43;2.40;;;;;;;8.01;95.10;100200.72;663793;212;24784;-78
2021/05/24 00:39:25;;;;;;;2.70;2.50;;;;;;;8.22;95.08;100207.64;664528;216;24861;-77
2021/05/24 00:41:53;;;;;;;3.53;2.77;;;;;;;8.04;94.91;100216.03;662905;216;24935;-77
2021/05/24 00:44:22;;;;;;;4.90;2.80;;;;;;;8.11;94.54;100222.79;663205;216;24778;-77
2021/05/24 00:46:49;;;;;;;3.37;2.23;;;;;;;8.16;94.86;100215.44;663927;212;23795;-77
2021/05/24 00:49:17;;;;;;;4.43;2.37;;;;;;;8.10;93.11;100208.20;649869;220;24815;-76
2021/05/24 00:51:44;;;;;;;2.53;2.33;;;;;;;7.81;93.65;100200.77;647258;219;28034;-77
2021/05/24 00:54:12;;;;;;;3.47;2.60;;;;;;;7.80;94.13;100193.95;668261;214;24822;-77
2021/05/24 00:56:40;;;;;;;2.70;2.50;;;;;;;7.69;93.58;100187.06;659817;218;24840;-77
2021/05/24 00:59:08;;;;;;;4.70;2.70;;;;;;;7.56;93.94;100185.95;652805;219;24813;-77
2021/05/24 01:01:36;;;;;;;3.13;2.70;;;;;;;7.57;96.11;100189.36;651454;218;24813;-77
2021/05/24 01:04:04;;;;;;;4.70;2.80;;;;;;;7.52;96.35;100189.75;650694;220;24838;-77
2021/05/24 01:06:32;;;;;;;2.87;2.17;;;;;;;7.46;96.78;100188.98;651506;216;27997;-76
2021/05/24 01:09:00;;;;;;;2.83;2.60;;;;;;;7.70;96.16;100197.28;651541;220;24828;-77
2021/05/24 01:11:28;;;;;;;2.53;2.33;;;;;;;7.96;95.92;100189.94;650270;220;24834;-77
2021/05/24 01:13:56;;;;;;;4.55;2.60;;;;;;;8.39;92.25;100182.91;660589;214;32621;-77
2021/05/24 01:16:24;;;;;;;2.90;2.40;;;;;;;8.02;93.50;100174.34;661860;216;23691;-77
2021/05/24 01:18:52;;;;;;;3.23;2.27;;;;;;;7.80;94.61;100190.06;662877;216;24774;-77
2021/05/24 01:21:20;;;;;;;3.93;2.53;;;;;;;7.85;95.10;100187.90;662831;216;24770;-76
2021/05/24 01:23:48;;;;;;;4.43;2.80;;;;;;;8.22;95.03;100180.44;665441;216;24777;-76
2021/05/24 01:26:16;;;;;;;6.07;2.37;;;;;;;8.21;94.74;100173.15;664948;212;24835;-76
2021/05/24 01:28:44;;;;;;;2.40;2.20;;;;;;;8.31;95.17;100165.42;664936;216;24776;-76
2021/05/24 01:31:12;;;;;;;3.90;2.60;;;;;;;8.36;95.27;100168.93;661876;216;24782;-76
2021/05/24 01:33:40;;;;;;;6.60;2.43;;;;;;;8.58;93.71;100155.26;664520;214;24774;-77
2021/05/24 01:36:08;;;;;;;2.30;2.03;;;;;;;8.41;93.34;100143.43;663132;216;24817;-77
2021/05/24 01:38:37;;;;;;;2.20;2.00;;;;;;;8.44;94.56;100136.20;661931;216;25427;-76
2021/05/24 01:41:04;;;;;;;4.17;2.00;;;;;;;8.44;94.46;100137.97;664490;216;31220;-77
2021/05/24 01:43:32;;;;;;;3.43;2.40;;;;;;;8.40;93.25;100130.95;665569;216;24778;-77
2021/05/24 01:46:00;;;;;;;4.17;2.40;;;;;;;8.20;93.06;100137.02;664438;212;23803;-77
2021/05/24 01:48:28;;;;;;;6.80;1.87;;;;;;;7.79;93.38;100130.99;663354;216;27997;-76
2021/05/24 01:50:57;;;;;;;3.50;2.60;;;;;;;7.83;94.59;100135.42;663991;216;24844;-77
2021/05/24 01:53:25;;;;;;;4.30;2.40;;;;;;;7.53;94.51;100138.34;665724;216;24771;-77
2021/05/24 01:55:53;;;;;;;2.60;2.40;;;;;;;7.18;96.25;100136.09;664634;212;24795;-77
2021/05/24 01:58:21;;;;;;;2.07;1.87;;;;;;;7.12;96.25;100139.97;664881;216;24777;-77
2021/05/24 02:00:49;;;;;;;4.90;2.43;;;;;;;6.95;97.88;100142.30;662030;216;24775;-79
2021/05/24 02:03:17;;;;;;;2.47;1.70;;;;;;;7.07;98.45;100138.72;665580;214;24774;-78
2021/05/24 02:05:45;;;;;;;4.80;2.07;;;;;;;7.28;97.93;100137.42;664212;211;24799;-78
2021/05/24 02:08:12;;;;;;;3.47;2.50;;;;;;;7.97;93.99;100122.13;659860;216;32354;-78
2021/05/24 02:10:41;;;;;;;5.17;2.40;;;;;;;7.22;95.80;100123.72;664744;216;24790;-79
2021/05/24 02:13:09;;;;;;;5.40;2.37;;;;;;;7.14;96.81;100125.63;663341;216;24821;-79
2021/05/24 02:15:37;;;;;;;2.50;2.30;;;;;;;7.33;96.64;100126.25;662479;216;24747;-79
2021/05/24 02:18:05;;;;;;;2.10;2.00;;;;;;;7.32;96.45;100119.41;662486;216;25047;-79
2021/05/24 02:20:34;;;;;;;3.90;2.07;;;;;;;7.22;97.25;100127.59;663338;216;24764;-76
2021/05/24 02:23:01;;;;;;;2.50;2.13;;;;;;;7.34;97.28;100119.66;664534;216;24800;-78
2021/05/24 02:25:29;;;;;;;5.23;2.20;;;;;;;7.44;97.00;100124.39;665274;212;24856;-78
2021/05/24 02:27:57;;;;;;;2.80;2.20;;;;;;;7.47;96.60;100118.16;665661;216;25007;-79
2021/05/24 02:30:25;;;;;;;2.70;1.93;;;;;;;7.29;96.45;100117.90;665447;216;24792;-78
2021/05/24 02:32:53;;;;;;;1.70;1.60;;;;;;;7.05;95.87;100099.24;664536;216;24776;-78
2021/05/24 02:35:21;;;;;;;2.57;2.13;;;;;;;6.99;96.59;100103.12;663038;216;24801;-78
2021/05/24 02:37:49;;;;;;;2.30;2.10;;;;;;;7.19;96.90;100108.46;665680;216;24779;-78
2021/05/24 02:40:17;;;;;;;2.70;2.00;;;;;;;7.25;95.78;100105.36;663597;216;24797;-78
2021/05/24 02:42:45;;;;;;;2.67;2.43;;;;;;;7.01;95.50;100113.34;657182;216;24768;-77
2021/05/24 02:45:13;;;;;;;4.53;1.90;;;;;;;6.98;95.88;100113.12;663701;212;24779;-78
2021/05/24 02:47:41;;;;;;;1.90;1.73;;;;;;;6.94;96.13;100101.41;663516;216;24785;-77
2021/05/24 02:50:10;;;;;;;3.27;1.80;;;;;;;6.96;95.39;100099.52;664573;216;24751;-78
2021/05/24 02:52:38;;;;;;;2.23;2.03;;;;;;;7.11;97.70;100105.20;663826;216;24798;-78
2021/05/24 02:55:06;;;;;;;2.97;2.60;;;;;;;7.45;96.03;100103.22;662637;216;24766;-78
2021/05/24 02:57:34;;;;;;;2.43;1.90;;;;;;;7.27;96.71;100096.52;665033;216;24782;-78
2021/05/24 03:00:02;;;;;;;1.80;1.70;;;;;;;7.01;96.02;100097.36;661946;216;24789;-78
2021/05/24 03:02:31;;;;;;;1.83;1.73;;;;;;;6.96;95.24;100096.92;664985;214;24803;-79
2021/05/24 03:04:58;;;;;;;2.30;2.10;;;;;;;7.05;94.06;100082.44;664287;212;24772;-78
2021/05/24 03:07:26;;;;;;;1.93;1.83;;;;;;;6.92;93.82;100080.03;662783;216;24787;-78
2021/05/24 03:09:54;;;;;;;2.30;2.20;;;;;;;6.75;95.17;100089.60;664465;216;24778;-78
2021/05/24 03:12:22;;;;;;;5.03;2.03;;;;;;;6.78;95.12;100083.73;663811;216;24776;-77
2021/05/24 03:14:50;;;;;;;1.80;1.70;;;;;;;6.65;95.40;100088.72;663573;212;24789;-78
2021/05/24 03:17:18;;;;;;;2.30;1.87;;;;;;;6.68;96.01;100103.97;666121;215;24766;-77
2021/05/24 03:19:46;;;;;;;3.40;1.83;;;;;;;6.79;96.15;100090.54;658711;216;24779;-77
2021/05/24 03:22:20;;;;;;;2.00;1.73;;;;;;;6.63;95.67;100083.68;665011;216;24812;-78
2021/05/24 03:24:48;;;;;;;4.20;2.13;;;;;;;6.80;96.26;100101.23;663713;212;24808;-78
2021/05/24 03:27:16;;;;;;;3.60;2.47;;;;;;;6.91;98.76;100095.20;664710;216;24770;-78
2021/05/24 03:29:44;;;;;;;2.43;2.23;;;;;;;7.22;97.37;100080.57;658048;216;24779;-78
2021/05/24 03:32:12;;;;;;;2.33;2.13;;;;;;;6.95;98.95;100100.93;665160;216;24762;-78
2021/05/24 03:34:40;;;;;;;2.40;1.97;;;;;;;6.88;99.21;100095.89;663912;216;24800;-78
2021/05/24 03:37:07;;;;;;;3.40;3.10;;;;;;;6.90;98.24;100096.14;663377;216;24775;-79
2021/05/24 03:39:35;;;;;;;1.93;1.73;;;;;;;6.96;96.49;100090.94;664251;216;24778;-78
2021/05/24 03:42:04;;;;;;;2.60;1.93;;;;;;;6.93;96.32;100082.96;665474;216;25069;-78
2021/05/24 03:44:32;;;;;;;2.83;2.43;;;;;;;6.62;97.15;100076.88;665966;216;24830;-78
2021/05/24 03:47:00;;;;;;;2.60;2.40;;;;;;;6.55;97.92;100079.58;664564;212;24983;-79
2021/05/24 03:49:27;;;;;;;2.50;2.30;;;;;;;7.30;95.77;100078.15;659324;216;32375;-78
2021/05/24 03:51:56;;;;;;;4.20;2.13;;;;;;;6.95;95.55;100073.31;664105;216;24785;-78
2021/05/24 03:54:24;;;;;;;4.60;2.27;;;;;;;7.02;95.68;100073.14;663518;216;24774;-79
2021/05/24 03:56:52;;;;;;;2.23;2.10;;;;;;;6.77;95.70;100055.44;664190;216;23795;-79
2021/05/24 03:59:20;;;;;;;1.70;1.60;;;;;;;6.60;95.19;100065.00;665522;216;24777;-78
2021/05/24 04:01:50;;;;;;;1.93;1.83;;;;;;;6.59;95.77;100060.77;662493;216;24770;-78
2021/05/24 04:04:17;;;;;;;1.97;1.63;;;;;;;6.55;96.04;100061.02;665062;216;24883;-78
2021/05/24 04:06:51;;;;;;;2.40;2.10;;;;;;;6.87;96.21;100069.70;644047;220;25264;-78
2021/05/24 04:09:13;;;;;;;2.20;2.00;;;;;;;7.00;95.81;100075.03;649774;220;24842;-78
2021/05/24 04:11:40;;;;;;;3.10;2.10;;;;;;;7.28;94.92;100068.41;648180;221;24814;-78
2021/05/24 04:14:08;;;;;;;4.20;2.10;;;;;;;7.94;93.08;100055.08;646362;220;32570;-78
2021/05/24 04:16:36;;;;;;;5.13;2.20;;;;;;;8.15;90.42;100049.31;647172;216;32509;-78
2021/05/24 04:19:07;;;;;;;3.27;2.93;;;;;;;7.37;93.43;100065.54;651937;220;28068;-78
2021/05/24 04:21:32;;;;;;;3.60;3.30;;;;;;;7.47;93.89;100065.13;663384;216;25959;-78
2021/05/24 04:24:00;;;;;;;3.80;1.87;;;;;;;7.28;93.34;100061.13;651268;220;25110;-78
2021/05/24 04:26:28;;;;;;;2.40;2.20;;;;;;;7.36;95.08;100080.24;666054;214;24794;-78
2021/05/24 04:28:56;;;;;;;2.30;2.10;;;;;;;7.54;94.53;100077.05;657764;218;24877;-78
2021/05/24 04:31:24;;;;;;;5.03;1.70;;;;;;;7.47;93.85;100072.06;652051;220;24837;-77
2021/05/24 04:33:52;;;;;;;2.27;2.07;;;;;;;7.54;94.04;100071.88;652503;215;30133;-78
2021/05/24 04:36:20;;;;;;;1.93;1.70;;;;;;;7.44;95.50;100067.94;665547;216;24792;-78
2021/05/24 04:38:48;;;;;;;2.20;2.00;;;;;;;7.57;96.32;100076.80;656918;216;24805;-78
2021/05/24 04:41:16;;;;;;;2.20;1.87;;;;;;;7.91;94.66;100071.70;665881;215;24780;-78
2021/05/24 04:43:43;;;;;;;4.60;2.23;;;;;;;7.74;93.77;100063.23;650973;220;24804;-78
2021/05/24 04:46:11;;;;;;;2.30;1.90;;;;;;;8.00;94.67;100062.30;652439;216;24807;-78
2021/05/24 04:48:39;;;;;;;2.40;1.73;;;;;;;7.89;94.18;100057.25;664434;215;24772;-79
2021/05/24 04:51:07;;;;;;;2.90;2.17;;;;;;;7.95;94.52;100065.77;660166;216;24774;-78
2021/05/24 04:53:35;;;;;;;2.00;1.90;;;;;;;7.86;94.67;100066.55;664645;216;24789;-78
2021/05/24 04:56:03;;;;;;;2.37;2.17;;;;;;;7.97;94.93;100055.62;663552;212;24806;-78
2021/05/24 04:58:31;;;;;;;2.20;1.70;;;;;;;7.96;95.53;100062.23;664313;216;24779;-76
2021/05/24 05:01:01;;;;;;;3.40;2.27;;;;;;;8.29;95.32;100064.95;662284;216;24781;-77
2021/05/24 05:03:27;;;;;;;2.60;2.40;;;;;;;8.57;94.15;100064.67;664852;216;24791;-78
2021/05/24 05:05:55;;;;;;;4.17;3.03;;;;;;;8.70;93.29;100060.52;664225;212;24778;-78
2021/05/24 05:08:23;;;;;;;2.20;2.00;;;;;;;8.73;94.10;100058.48;663589;216;24777;-77
2021/05/24 05:10:51;;;;;;;2.97;1.90;;;;;;;8.96;92.85;100047.80;663896;216;24778;-78
2021/05/24 05:13:19;;;;;;;2.47;2.20;;;;;;;9.07;92.39;100045.06;663593;216;23860;-78
2021/05/24 05:15:47;;;;;;;2.83;2.00;;;;;;;9.19;92.32;100036.17;663859;216;24767;-78
2021/05/24 05:18:15;;;;;;;3.80;2.00;;;;;;;9.30;92.04;100039.90;665057;216;32352;-78
2021/05/24 05:20:43;;;;;;;2.03;1.77;;;;;;;9.45;91.76;100048.05;664528;216;24836;-79
2021/05/24 05:23:10;;;;;;;2.77;1.90;;;;;;;10.08;88.72;100030.77;658749;216;32354;-78
2021/05/24 05:25:38;;;;;;;4.43;2.10;;;;;;;9.91;89.45;100030.75;665213;212;24863;-79
2021/05/24 05:28:07;;;;;;;4.63;3.47;;;;;;;10.03;89.72;100043.40;664428;216;24842;-78
2021/05/24 05:30:35;;;;;;;2.75;1.90;;;;;;;10.56;87.78;100042.66;657000;215;32567;-78
2021/05/24 05:33:03;;;;;;;2.70;2.00;;;;;;;10.77;86.39;100030.63;650555;218;32513;-78
2021/05/24 05:35:32;;;;;;;3.27;2.20;;;;;;;10.20;87.85;100044.87;663898;216;22730;-78
2021/05/24 05:37:59;;;;;;;2.77;2.07;;;;;;;10.31;89.12;100052.48;665956;214;24768;-78
2021/05/24 05:40:30;;;;;;;3.20;2.83;;;;;;;10.37;89.04;100045.39;665423;215;24798;-78
2021/05/24 05:42:55;;;;;;;8.33;3.90;;;;;;;10.54;88.93;100045.05;665098;216;24788;-77
2021/05/24 05:45:23;;;;;;;3.60;2.00;;;;;;;10.72;87.54;100041.16;665577;211;24796;-77
2021/05/24 05:47:51;;;;;;;8.37;2.43;;;;;;;10.74;87.68;100042.64;664013;216;24766;-77
2021/05/24 05:50:19;;;;;;;3.60;1.97;;;;;;;10.79;88.18;100038.27;664531;216;23798;-77
2021/05/24 05:52:47;;;;;;;2.90;2.00;;;;;;;10.81;86.95;100034.55;664353;216;24777;-78
2021/05/24 05:55:15;;;;;;;2.33;1.60;;;;;;;10.96;86.57;100033.03;663224;216;24765;-77
2021/05/24 05:57:43;;;;;;;2.23;2.00;;;;;;;10.98;86.27;100030.31;665001;216;26000;-77
2021/05/24 06:00:13;;;;;;;2.00;1.80;;;;;;;11.18;86.99;100029.61;662320;216;23802;-77
2021/05/24 06:02:41;;;;;;;2.17;1.90;;;;;;;11.24;85.58;100029.80;668872;215;24785;-78
2021/05/24 06:05:10;;;;;;;3.00;2.10;;;;;;;11.39;86.83;100024.83;654769;215;24831;-78
2021/05/24 06:07:38;;;;;;;2.53;1.60;;;;;;;11.56;85.38;100022.66;655027;218;24840;-79
2021/05/24 06:10:07;;;;;;;1.95;1.40;;;;;;;12.06;83.81;100012.75;647514;218;32520;-78
2021/05/24 06:12:35;;;;;;;5.70;2.37;;;;;;;11.95;84.75;100009.13;655579;217;25835;-78
2021/05/24 06:15:04;;;;;;;3.07;2.80;;;;;;;11.84;85.40;100018.08;650639;219;24810;-78
2021/05/24 06:17:32;;;;;;;2.00;1.80;;;;;;;11.25;87.69;100018.41;657997;218;25134;-77
2021/05/24 06:20:00;;;;;;;1.80;1.70;;;;;;;11.49;87.18;100016.91;645791;219;32589;-78
2021/05/24 06:22:31;;;;;;;3.80;1.93;;;;;;;11.24;86.96;100007.67;664889;216;27987;-77
2021/05/24 06:24:59;;;;;;;2.53;2.10;;;;;;;11.28;87.42;100001.69;664519;214;25433;-78
2021/05/24 06:27:27;;;;;;;4.33;2.00;;;;;;;11.26;87.36;100001.85;664642;216;24787;-79
2021/05/24 06:29:54;;;;;;;6.60;1.87;;;;;;;11.28;87.11;99996.48;652288;218;24832;-78
2021/05/24 06:32:29;;;;;;;3.50;2.00;;;;;;;11.59;86.19;99994.18;667701;215;24774;-78
2021/05/24 06:34:57;;;;;;;2.93;1.90;;;;;;;11.71;86.17;99990.32;654390;218;24807;-79
2021/05/24 06:37:25;;;;;;;2.80;2.30;;;;;;;11.81;86.33;99992.80;655197;218;24839;-79
2021/05/24 06:39:53;;;;;;;3.10;2.00;;;;;;;12.16;84.83;99996.48;655630;219;24753;-78
2021/05/24 06:42:21;;;;;;;2.58;2.20;;;;;;;12.89;82.83;99989.14;656978;216;32401;-78
2021/05/24 06:44:50;;;;;;;4.93;2.60;;;;;;;12.97;82.54;99994.37;662844;212;23680;-79
2021/05/24 06:47:17;;;;;;;2.43;2.20;;;;;;;12.85;82.45;99991.77;663618;216;24779;-78
2021/05/24 06:49:45;;;;;;;2.90;2.60;;;;;;;13.16;82.93;99985.34;664731;214;23838;-77
2021/05/24 06:52:13;;;;;;;3.03;2.43;;;;;;;13.18;81.96;99990.39;665389;216;24774;-79
2021/05/24 06:54:41;;;;;;;2.43;2.23;;;;;;;13.04;82.77;99997.11;653368;218;24808;-78
2021/05/24 06:57:09;;;;;;;2.10;2.00;;;;;;;13.24;82.62;100002.83;666034;215;24777;-78
2021/05/24 06:59:36;;;;;;;5.07;4.40;;;;;;;13.45;81.75;99993.12;664571;216;23797;-78
2021/05/24 07:02:04;;;;;;;2.80;2.60;;;;;;;13.45;82.59;99996.55;664973;216;24789;-78
2021/05/24 07:04:32;;;;;;;2.13;1.70;;;;;;;13.44;82.84;99991.48;666175;216;24790;-79
2021/05/24 07:07:00;;;;;;;5.37;2.20;;;;;;;14.05;80.67;99990.69;660018;213;24785;-78
2021/05/24 07:09:28;;;;;;;4.97;2.27;;;;;;;13.96;80.12;99983.41;645447;222;23984;-78
2021/05/24 07:11:56;;;;;;;2.20;1.70;;;;;;;14.19;79.19;99980.78;651018;220;23832;-77
2021/05/24 07:14:24;;;;;;;3.03;1.80;;;;;;;14.41;76.64;99963.47;664140;214;24777;-79
2021/05/24 07:16:54;;;;;;;1.80;1.63;;;;;;;14.46;76.62;99955.92;657236;218;23881;-78
2021/05/24 07:19:20;;;;;;;4.03;2.03;;;;;;;14.85;76.48;99955.73;655053;218;23841;-78
2021/05/24 07:21:48;;;;;;;2.50;1.50;;;;;;;15.05;74.38;99953.38;655972;218;24815;-79
2021/05/24 07:24:16;;;;;;;3.77;1.60;;;;;;;15.39;72.66;99948.10;655443;218;23845;-79
2021/05/24 07:26:44;;;;;;;2.90;1.73;;;;;;;15.45;71.99;99938.18;654817;215;24834;-79
2021/05/24 07:29:12;;;;;;;1.83;1.60;;;;;;;15.95;71.52;99943.92;655523;218;24817;-79
2021/05/24 07:31:40;;;;;;;2.10;1.90;;;;;;;17.06;68.43;99940.28;655858;217;23853;-78
2021/05/24 07:34:08;;;;;;;1.73;1.63;;;;;;;17.48;68.09;99933.50;656248;218;24077;-79
2021/05/24 07:36:36;;;;;;;1.93;1.70;;;;;;;17.69;67.83;99935.70;655153;218;24750;-79
2021/05/24 07:39:05;;;;;;;3.30;1.70;;;;;;;18.01;66.58;99928.89;651340;220;24826;-79
2021/05/24 07:41:33;;;;;;;3.07;1.73;;;;;;;18.35;65.66;99914.24;649168;220;24826;-79
2021/05/24 07:44:00;;;;;;;3.30;1.73;;;;;;;17.98;63.79;99916.13;663059;216;24766;-78
2021/05/24 07:46:28;;;;;;;2.80;1.43;;;;;;;18.24;63.09;99918.80;650867;220;23854;-79
2021/05/24 07:48:56;;;;;;;4.63;1.60;;;;;;;18.65;62.91;99922.56;666564;215;23805;-79
2021/05/24 07:51:25;;;;;;;3.53;1.70;;;;;;;17.92;62.58;99916.44;661768;216;25174;-79
2021/05/24 07:53:53;;;;;;;4.07;1.67;;;;;;;18.13;63.16;99911.49;664543;214;23809;-78
2021/05/24 07:56:21;;;;;;;4.90;1.80;;;;;;;17.91;63.86;99907.44;663394;216;23814;-78
2021/05/24 07:58:49;;;;;;;1.73;1.50;;;;;;;17.57;63.94;99908.32;665168;216;23817;-78
2021/05/24 08:01:17;;;;;;;2.67;1.73;;;;;;;18.17;63.66;99907.47;663432;215;23791;-77
2021/05/24 08:03:45;;;;;;;2.90;1.40;;;;;;;18.68;61.36;99900.25;646974;220;24160;-78
2021/05/24 08:06:14;;;;;;;5.10;1.80;;;;;;;18.70;60.33;99892.95;652794;216;23843;-78
2021/05/24 08:08:42;;;;;;;4.23;1.40;;;;;;;17.73;63.41;99906.16;650965;220;23838;-77
2021/05/24 08:11:11;;;;;;;4.33;1.97;;;;;;;17.69;63.38;99909.41;651708;220;28042;-77
2021/05/24 08:13:37;;;;;;;5.27;2.20;;;;;;;18.20;62.38;99898.34;668357;215;23888;-77
2021/05/24 08:16:05;;;;;;;5.10;1.50;;;;;;;18.32;60.98;99890.95;658440;218;23834;-77
2021/05/24 08:18:33;;;;;;;2.67;1.60;;;;;;;19.27;58.80;99884.76;647604;218;32519;-78
2021/05/24 08:21:01;;;;;;;4.60;1.60;;;;;;;19.54;58.41;99877.05;650291;218;32566;-77
2021/05/24 08:23:29;;;;;;;2.43;1.50;;;;;;;18.38;59.47;99873.02;652322;219;22700;-77
2021/05/24 08:25:57;;;;;;;3.80;1.50;;;;;;;18.36;60.65;99879.50;661784;216;23812;-77
2021/05/24 08:28:25;;;;;;;2.50;1.20;;;;;;;18.53;60.57;99864.08;663338;216;23809;-77
2021/05/24 08:30:53;;;;;;;3.30;1.73;;;;;;;19.30;59.77;99867.73;664033;216;24797;-77
2021/05/24 08:33:21;;;;;;;2.77;1.50;;;;;;;20.22;56.94;99862.36;661843;217;23828;-77
2021/05/24 08:35:49;;;;;;;7.40;1.83;;;;;;;20.22;58.13;99851.28;645924;219;23843;-78
2021/05/24 08:38:18;;;;;;;1.67;1.10;;;;;;;20.44;57.68;99840.64;664165;215;23819;-77
2021/05/24 08:40:46;;;;;;;2.03;1.13;;;;;;;20.64;55.11;99835.14;663620;216;23821;-77
2021/05/24 08:43:14;;;;;;;1.43;1.10;;;;;;;20.34;56.16;99825.77;663938;216;24805;-77
2021/05/24 08:45:42;;;;;;;2.20;1.10;;;;;;;20.38;57.09;99823.49;663023;212;23781;-79
2021/05/24 08:48:10;;;;;;;2.87;1.20;;;;;;;21.39;55.21;99814.19;665105;216;23809;-79
2021/05/24 08:50:38;;;;;;;2.27;1.30;;;;;;;21.68;54.50;99812.05;663031;216;31229;-80
2021/05/24 08:53:06;;;;;;;3.50;1.10;;;;;;;21.00;54.58;99810.53;663011;216;23811;-79
2021/05/24 08:55:34;;;;;;;2.57;1.23;;;;;;;20.69;55.09;99808.88;662705;213;24839;-78
2021/05/24 08:58:02;;;;;;;3.70;1.30;;;;;;;20.06;55.91;99805.63;651453;220;24860;-78
2021/05/24 09:00:30;;;;;;;2.53;1.20;;;;;;;20.79;55.03;99798.28;663993;216;23810;-78
2021/05/24 09:02:58;;;;;;;4.40;1.10;;;;;;;21.15;55.78;99800.88;651851;220;23841;-78
2021/05/24 09:05:29;;;;;;;2.53;1.13;;;;;;;21.83;54.98;99793.88;650905;216;23894;-79
2021/05/24 09:07:56;;;;;;;3.47;1.00;;;;;;;21.84;54.62;99781.45;663792;215;23839;-79
2021/05/24 09:10:24;;;;;;;3.30;1.60;;;;;;;21.45;53.62;99777.59;660639;216;23815;-80
2021/05/24 09:12:52;;;;;;;4.20;1.30;;;;;;;21.24;53.96;99777.02;647023;218;32471;-79
2021/05/24 09:15:20;;;;;;;6.33;1.20;;;;;;;21.52;54.52;99772.98;666724;211;22702;-78
2021/05/24 09:17:48;;;;;;;2.47;1.50;;;;;;;21.78;53.16;99769.11;665104;215;23794;-78
2021/05/24 09:20:25;;;;;;;2.30;1.10;;;;;;;22.44;53.00;99751.53;660138;216;32645;-77
2021/05/24 09:23:14;;;;;;;3.80;1.00;;;;;;;21.61;52.79;99749.94;664247;216;22722;-78
2021/05/24 09:25:56;;;;;;;1.90;1.00;;;;;;;22.19;52.87;99749.16;652529;216;23825;-80
2021/05/24 09:28:29;;;;;;;2.27;1.00;;;;;;;22.13;51.11;99750.09;652521;220;23828;-78
2021/05/24 09:30:57;;;;;;;2.30;0.80;;;;;;;22.16;51.12;99735.58;652657;220;27088;-79
2021/05/24 09:33:25;;;;;;;2.20;1.00;;;;;;;21.51;50.66;99731.67;662242;215;25090;-80
2021/05/24 09:35:53;;;;;;;1.23;0.80;;;;;;;21.78;49.95;99724.91;657005;215;23823;-79
2021/05/24 09:38:21;;;;;;;3.17;0.90;;;;;;;22.28;49.18;99728.41;656098;218;23876;-79
2021/05/24 09:40:54;;;;;;;2.60;1.07;;;;;;;22.30;49.52;99718.91;658479;217;27934;-79
2021/05/24 09:43:28;;;;;;;2.33;0.90;;;;;;;22.15;50.00;99715.42;649760;220;23834;-80
2021/05/24 09:46:06;;;;;;;1.13;0.93;;;;;;;22.24;48.94;99715.36;646710;220;26966;-80
2021/05/24 09:48:34;;;;;;;1.13;0.90;;;;;;;22.44;49.42;99708.33;650114;219;24238;-79
2021/05/24 09:51:05;;;;;;;3.70;0.90;;;;;;;22.37;49.96;99717.72;647813;220;23828;-79
2021/05/24 09:53:33;;;;;;;1.10;0.90;;;;;;;22.96;48.46;99710.41;650785;220;23865;-79
2021/05/24 09:56:05;;;;;;;5.67;1.00;;;;;;;23.12;48.56;99705.36;653799;217;32420;-79
2021/05/24 09:58:33;;;;;;;2.43;1.00;;;;;;;22.83;48.76;99700.09;644550;220;32512;-79
2021/05/24 10:01:13;;;;;;;3.70;1.00;;;;;;;22.58;49.51;99698.25;649648;220;23883;-79
2021/05/24 10:03:33;;;;;;;4.03;1.00;;;;;;;22.91;48.95;99704.98;665245;215;23852;-80
2021/05/24 10:05:59;;;;;;;2.50;0.80;;;;;;;22.66;47.94;99690.74;646796;216;32467;-80
2021/05/24 10:08:26;;;;;;;1.20;0.70;;;;;;;22.71;47.03;99686.05;663588;216;22713;-80
2021/05/24 10:10:54;;;;;;;1.03;0.80;;;;;;;23.08;46.67;99683.30;663923;216;23780;-80
2021/05/24 10:13:24;;;;;;;1.93;1.00;;;;;;;23.09;48.67;99684.09;651051;220;24891;-80
2021/05/24 10:15:54;;;;;;;1.00;0.90;;;;;;;22.87;46.95;99675.21;663963;216;23853;-79
2021/05/24 10:18:18;;;;;;;1.17;0.80;;;;;;;22.28;47.29;99674.09;663937;216;23818;-80
2021/05/24 10:20:46;;;;;;;2.17;0.80;;;;;;;22.62;46.77;99667.57;663693;214;24788;-80
2021/05/24 10:23:16;;;;;;;2.67;1.07;;;;;;;22.77;47.30;99669.97;663608;214;23824;-79
2021/05/24 10:25:44;;;;;;;1.77;0.87;;;;;;;22.91;46.79;99659.09;652528;215;25044;-79
2021/05/24 10:28:12;;;;;;;2.00;0.90;;;;;;;23.18;46.40;99650.80;652981;219;23826;-80
2021/05/24 10:30:41;;;;;;;0.97;0.70;;;;;;;23.02;44.70;99647.09;646769;221;24160;-79
2021/05/24 10:33:12;;;;;;;2.00;0.90;;;;;;;22.20;46.37;99639.48;660047;216;42939;-80
2021/05/24 10:35:39;;;;;;;3.27;1.10;;;;;;;21.77;47.15;99640.42;666198;211;23812;-79
2021/05/24 10:38:18;;;;;;;1.33;0.80;;;;;;;21.63;47.66;99644.63;665078;216;23809;-80
2021/05/24 10:40:46;;;;;;;2.70;1.00;;;;;;;21.79;48.43;99645.76;662772;215;23815;-79
2021/05/24 10:43:17;;;;;;;2.20;0.90;;;;;;;21.84;48.18;99637.95;665172;216;23823;-80
2021/05/24 10:45:43;;;;;;;1.87;0.73;;;;;;;22.48;47.12;99633.91;663424;212;24794;-80
2021/05/24 10:48:11;;;;;;;10.50;0.80;;;;;;;22.92;47.20;99636.83;665770;215;23784;-79
2021/05/24 10:50:39;;;;;;;0.83;0.67;;;;;;;22.71;47.41;99630.36;663907;214;24819;-79
2021/05/24 10:53:22;;;;;;;1.13;0.90;;;;;;;22.82;45.70;99618.89;665327;216;23773;-80
2021/05/24 10:55:50;;;;;;;1.47;1.13;;;;;;;22.98;46.54;99620.77;659024;212;23770;-79
2021/05/24 10:58:20;;;;;;;1.30;1.00;;;;;;;23.06;45.58;99619.55;663782;216;23816;-79
2021/05/24 11:00:50;;;;;;;1.43;0.70;;;;;;;22.69;45.49;99611.23;657255;216;23794;-78
2021/05/24 11:03:18;;;;;;;1.57;0.90;;;;;;;22.57;47.03;99605.19;664432;216;26987;-78
2021/05/24 11:05:47;;;;;;;0.90;0.77;;;;;;;22.47;47.83;99603.95;658030;212;23778;-81
2021/05/24 11:08:26;;;;;;;2.70;0.90;;;;;;;23.12;46.32;99607.19;664538;216;23819;-78
2021/05/24 11:10:54;;;;;;;2.03;0.70;;;;;;;23.61;46.08;99582.43;665057;216;25905;-80
2021/05/24 11:13:23;;;;;;;1.70;0.80;;;;;;;24.49;45.31;99577.88;656993;216;32358;-80
2021/05/24 11:15:51;;;;;;;1.70;0.90;;;;;;;23.07;46.80;99568.09;662318;216;22707;-79
2021/05/24 11:18:21;;;;;;;1.63;0.70;;;;;;;22.81;44.34;99570.88;663416;216;23797;-79
2021/05/24 11:20:51;;;;;;;3.70;0.85;;;;;;;23.78;46.38;99576.25;656844;216;32585;-79
2021/05/24 11:23:25;;;;;;;1.63;0.90;;;;;;;23.63;45.45;99574.22;650300;220;22796;-79
2021/05/24 11:25:51;;;;;;;0.70;0.70;;;;;;;23.66;45.59;99563.92;664536;215;24799;-79
2021/05/24 11:28:19;;;;;;;6.47;1.00;;;;;;;22.74;44.34;99567.56;655302;218;23926;-78
2021/05/24 11:30:46;;;;;;;1.52;0.68;;;;;;;23.67;44.71;99555.44;644992;218;32549;-79
2021/05/24 11:33:36;;;;;;;2.62;0.90;;;;;;;22.75;44.14;99569.17;647156;218;32456;-79
2021/05/24 11:36:05;;;;;;;1.73;0.77;;;;;;;22.56;43.67;99555.34;655462;218;22733;-79
2021/05/24 11:38:33;;;;;;;0.70;0.60;;;;;;;22.89;45.64;99550.59;664568;215;23786;-80